首页
METAR-TAF:

METAR-TAF

机场 :

Lafayette Regional Airport

拉法葉, 路易斯安那州, 美国

纬度: 30-12-08N, 经度: 091-59-35W, 海拔: 12米

当前天气观测

该预报发布于1小时和1分钟前的00:53 UTC
风速5节,风向
温度 8°C
湿度 93%
气压 1019 hPa
能見度: 9.7公里
阴天层高于8000英尺
雨, 轻雾

METAR: KLFT 230053Z 10005KT 6SM RA BR OVC080 08/07 A3010 RMK AO2 SLP191 P0003 T00830067

时间: 19:54 (01:54 UTC)

预报

该预报发布于2小时和16分钟前的23:38 UTC
预报有效从23日的 00点(UTC)到 23日的 24点(UTC)
风速5节,风向
能見度: 9.7公里
散云层高于2500英尺
阴天层高于10000英尺
小阵雨, 轻雾
从 23日的 0600点(UTC)
风速8节,风向东转东南
能見度: 8.0公里
阴天层高于2500英尺
小阵雨
从 23日的 1200点(UTC)
风速8节,风向东南
能見度: 3.2公里
阴天层高于700英尺, 积雨云.
小阵雨, 附近有雷暴
从 23日的 1800点(UTC)
风速8节,风向
能見度: 6.4公里
阴天层高于700英尺, 积雨云.
小阵雨, 附近有雷暴
从 23日的 2200点(UTC)
风速8节,风向西转西南
能見度: 10公里
阴天层高于1500英尺
附近有阵雨

TAF: KLFT 222338Z 2300/2324 09005KT 6SM -SHRA BR SCT025 OVC100 FM230600 12008KT 5SM -SHRA OVC025 FM231200 13008KT 2SM -SHRA VCTS OVC007CB FM231800 18008KT 4SM -SHRA VCTS OVC007CB FM232200 25008KT P6SM VCSH OVC015

超过4000个机场的气象观测和天气预报(METAR&TAF报告)。

可查询的气象台以黄色和红色小点在地图上表示。

将鼠标移到小点上方,可查看气象台名称。

然后点击查看天气观测和预报。

如需切换地图:点击带黑十字的绿色按钮放大地图;点击带横线的绿色按钮缩小地图;或者点击绿色箭头查看邻近地区的地图。


METAR-TAF: